Carrington, North Dakota
Current Conditions -  °F | °C
As of 7:15 AM on Thursday 27 Nov 2014 (Local Time) from K46D Reporting Station
Clear Clear  
Wind Chill: -37°   Ceiling: Unl
Heat Index: -28°   Visibility: 10mi
Dew Point: -30°   Wind: 7mph
Humidity: 84%   Direction: 170°S
Pressure: 30.39"   Gusts: NA
Location:  47.45°N, 99.13°W
Report Text: K46D 271315Z AUTO 17006KT 10SM CLR M28/M30 A3039 RMK AO2
Loading
Personal Weather Stations






























Interactive Weather Map New forecast layout! Learn more

10-Day Weather Forecast

Advertisements
Track Severe Weather on mobile